sensor_id;sensor_type;location;lat;lon;timestamp;pressure;altitude;pressure_sealevel;temperature;humidity
54910;BME280;63189;51.240;9.964;2024-01-30T00:00:33;99136.50;;;3.51;88.83
54910;BME280;63189;51.240;9.964;2024-01-30T00:02:58;99133.75;;;3.40;89.89
54910;BME280;63189;51.240;9.964;2024-01-30T00:05:24;99139.75;;;3.40;89.52
54910;BME280;63189;51.240;9.964;2024-01-30T00:07:50;99135.38;;;3.35;90.49
54910;BME280;63189;51.240;9.964;2024-01-30T00:10:15;99121.59;;;3.33;90.08
54910;BME280;63189;51.240;9.964;2024-01-30T00:12:41;99132.75;;;3.33;90.13
54910;BME280;63189;51.240;9.964;2024-01-30T00:15:06;99132.75;;;3.32;90.93
54910;BME280;63189;51.240;9.964;2024-01-30T00:17:35;99129.28;;;3.30;90.82
54910;BME280;63189;51.240;9.964;2024-01-30T00:20:00;99122.25;;;3.23;90.62
54910;BME280;63189;51.240;9.964;2024-01-30T00:22:25;99122.25;;;3.21;90.79
54910;BME280;63189;51.240;9.964;2024-01-30T00:24:51;99129.06;;;3.17;90.85
54910;BME280;63189;51.240;9.964;2024-01-30T00:27:16;99127.34;;;3.16;90.66
54910;BME280;63189;51.240;9.964;2024-01-30T00:29:42;99128.16;;;3.14;90.86
54910;BME280;63189;51.240;9.964;2024-01-30T00:32:07;99137.53;;;3.12;91.28
54910;BME280;63189;51.240;9.964;2024-01-30T00:34:32;99128.91;;;3.08;91.03
54910;BME280;63189;51.240;9.964;2024-01-30T00:36:57;99132.34;;;3.09;91.07
54910;BME280;63189;51.240;9.964;2024-01-30T00:39:23;99132.19;;;3.01;91.75
54910;BME280;63189;51.240;9.964;2024-01-30T00:41:48;99133.13;;;3.03;91.02
54910;BME280;63189;51.240;9.964;2024-01-30T00:44:13;99129.63;;;3.01;91.41
54910;BME280;63189;51.240;9.964;2024-01-30T00:46:39;99127.91;;;3.02;92.09
54910;BME280;63189;51.240;9.964;2024-01-30T00:49:04;99131.38;;;3.02;91.89
54910;BME280;63189;51.240;9.964;2024-01-30T00:51:29;99126.16;;;3.01;91.88
54910;BME280;63189;51.240;9.964;2024-01-30T00:53:55;99123.56;;;2.98;91.62
54910;BME280;63189;51.240;9.964;2024-01-30T00:56:20;99122.72;;;3.00;91.76
54910;BME280;63189;51.240;9.964;2024-01-30T00:58:45;99122.66;;;2.96;92.10
54910;BME280;63189;51.240;9.964;2024-01-30T01:01:11;99120.09;;;2.97;92.05
54910;BME280;63189;51.240;9.964;2024-01-30T01:03:36;99122.75;;;3.02;91.79
54910;BME280;63189;51.240;9.964;2024-01-30T01:06:02;99117.50;;;2.96;91.88
54910;BME280;63189;51.240;9.964;2024-01-30T01:08:27;99119.22;;;2.95;92.03
54910;BME280;63189;51.240;9.964;2024-01-30T01:10:52;99120.09;;;2.96;92.06
54910;BME280;63189;51.240;9.964;2024-01-30T01:13:18;99114.06;;;2.95;92.22
54910;BME280;63189;51.240;9.964;2024-01-30T01:15:43;99115.66;;;2.90;92.50
54910;BME280;63189;51.240;9.964;2024-01-30T01:18:08;99119.94;;;2.89;92.89
54910;BME280;63189;51.240;9.964;2024-01-30T01:20:33;99122.56;;;2.91;92.60
54910;BME280;63189;51.240;9.964;2024-01-30T01:22:59;99114.81;;;2.89;92.89
54910;BME280;63189;51.240;9.964;2024-01-30T01:25:24;99119.09;;;2.89;92.58
54910;BME280;63189;51.240;9.964;2024-01-30T01:27:49;99119.94;;;2.89;92.83
54910;BME280;63189;51.240;9.964;2024-01-30T01:30:18;99120.91;;;2.93;92.34
54910;BME280;63189;51.240;9.964;2024-01-30T01:32:50;99129.47;;;2.92;93.02
54910;BME280;63189;51.240;9.964;2024-01-30T01:35:23;99132.00;;;2.90;92.77
54910;BME280;63189;51.240;9.964;2024-01-30T01:37:52;99127.66;;;2.88;92.99
54910;BME280;63189;51.240;9.964;2024-01-30T01:40:24;99129.34;;;2.86;93.48
54910;BME280;63189;51.240;9.964;2024-01-30T01:42:50;99131.13;;;2.90;93.13
54910;BME280;63189;51.240;9.964;2024-01-30T01:45:17;99143.06;;;2.85;93.60
54910;BME280;63189;51.240;9.964;2024-01-30T01:47:42;99138.81;;;2.88;93.39
54910;BME280;63189;51.240;9.964;2024-01-30T01:50:11;99124.25;;;2.89;93.42
54910;BME280;63189;51.240;9.964;2024-01-30T01:52:39;99120.81;;;2.90;93.31
54910;BME280;63189;51.240;9.964;2024-01-30T01:55:05;99124.38;;;2.95;93.30
54910;BME280;63189;51.240;9.964;2024-01-30T01:57:31;99126.84;;;2.90;93.62
54910;BME280;63189;51.240;9.964;2024-01-30T01:59:57;99125.97;;;2.90;93.86
54910;BME280;63189;51.240;9.964;2024-01-30T02:02:23;99126.84;;;2.90;93.49
54910;BME280;63189;51.240;9.964;2024-01-30T02:04:49;99125.22;;;2.94;93.25
54910;BME280;63189;51.240;9.964;2024-01-30T02:07:15;99121.81;;;2.97;93.38
54910;BME280;63189;51.240;9.964;2024-01-30T02:09:40;99121.81;;;2.97;93.48
54910;BME280;63189;51.240;9.964;2024-01-30T02:12:06;99126.06;;;2.93;93.58
54910;BME280;63189;51.240;9.964;2024-01-30T02:14:31;99120.06;;;2.94;94.07
54910;BME280;63189;51.240;9.964;2024-01-30T02:16:57;99114.91;;;2.94;93.91
54910;BME280;63189;51.240;9.964;2024-01-30T02:19:22;99114.03;;;2.94;94.15
54910;BME280;63189;51.240;9.964;2024-01-30T02:21:47;99108.88;;;2.94;94.01
54910;BME280;63189;51.240;9.964;2024-01-30T02:24:13;99110.66;;;2.96;94.31
54910;BME280;63189;51.240;9.964;2024-01-30T02:26:38;99105.50;;;2.98;94.28
54910;BME280;63189;51.240;9.964;2024-01-30T02:29:04;99108.91;;;2.95;94.40
54910;BME280;63189;51.240;9.964;2024-01-30T02:31:29;99109.81;;;2.99;93.82
54910;BME280;63189;51.240;9.964;2024-01-30T02:33:54;99113.22;;;2.96;93.89
54910;BME280;63189;51.240;9.964;2024-01-30T02:36:19;99117.34;;;2.88;94.19
54910;BME280;63189;51.240;9.964;2024-01-30T02:38:45;99118.88;;;2.78;94.43
54910;BME280;63189;51.240;9.964;2024-01-30T02:41:11;99107.69;;;2.76;94.49
54910;BME280;63189;51.240;9.964;2024-01-30T02:43:37;99104.28;;;2.77;94.89
54910;BME280;63189;51.240;9.964;2024-01-30T02:46:02;99104.13;;;2.70;95.30
54910;BME280;63189;51.240;9.964;2024-01-30T02:48:27;99093.81;;;2.70;94.99
54910;BME280;63189;51.240;9.964;2024-01-30T02:50:53;99101.63;;;2.73;94.70
54910;BME280;63189;51.240;9.964;2024-01-30T02:53:18;99092.13;;;2.70;94.83
54910;BME280;63189;51.240;9.964;2024-01-30T02:55:43;99092.19;;;2.73;94.58
54910;BME280;63189;51.240;9.964;2024-01-30T02:58:09;99087.78;;;2.68;94.71
54910;BME280;63189;51.240;9.964;2024-01-30T03:00:34;99087.78;;;2.68;95.26
54910;BME280;63189;51.240;9.964;2024-01-30T03:03:00;99092.03;;;2.66;95.26
54910;BME280;63189;51.240;9.964;2024-01-30T03:05:25;99094.66;;;2.69;95.15
54910;BME280;63189;51.240;9.964;2024-01-30T03:07:50;99087.75;;;2.66;95.37
54910;BME280;63189;51.240;9.964;2024-01-30T03:10:16;99078.34;;;2.68;95.48
54910;BME280;63189;51.240;9.964;2024-01-30T03:12:41;99087.03;;;2.73;95.02
54910;BME280;63189;51.240;9.964;2024-01-30T03:15:06;99078.38;;;2.70;95.31
54910;BME280;63189;51.240;9.964;2024-01-30T03:17:32;99086.97;;;2.70;95.49
54910;BME280;63189;51.240;9.964;2024-01-30T03:19:57;99074.03;;;2.66;95.31
54910;BME280;63189;51.240;9.964;2024-01-30T03:22:22;99091.19;;;2.67;95.55
54910;BME280;63189;51.240;9.964;2024-01-30T03:24:48;99079.22;;;2.69;95.13
54910;BME280;63189;51.240;9.964;2024-01-30T03:27:13;99075.81;;;2.70;95.24
54910;BME280;63189;51.240;9.964;2024-01-30T03:29:38;99075.81;;;2.70;95.30
54910;BME280;63189;51.240;9.964;2024-01-30T03:32:04;99079.31;;;2.73;94.70
54910;BME280;63189;51.240;9.964;2024-01-30T03:34:30;99070.72;;;2.73;94.92
54910;BME280;63189;51.240;9.964;2024-01-30T03:36:55;99075.81;;;2.70;94.90
54910;BME280;63189;51.240;9.964;2024-01-30T03:39:20;99075.75;;;2.67;95.16
54910;BME280;63189;51.240;9.964;2024-01-30T03:41:46;99080.94;;;2.68;94.84
54910;BME280;63189;51.240;9.964;2024-01-30T03:44:11;99072.31;;;2.66;94.85
54910;BME280;63189;51.240;9.964;2024-01-30T03:46:36;99075.75;;;2.67;94.88
54910;BME280;63189;51.240;9.964;2024-01-30T03:49:02;99077.44;;;2.65;95.02
54910;BME280;63189;51.240;9.964;2024-01-30T03:51:27;99070.50;;;2.60;95.03
54910;BME280;63189;51.240;9.964;2024-01-30T03:53:53;99066.09;;;2.55;95.05
54910;BME280;63189;51.240;9.964;2024-01-30T03:56:18;99067.00;;;2.58;94.88
54910;BME280;63189;51.240;9.964;2024-01-30T03:58:43;99062.69;;;2.56;95.10
54910;BME280;63189;51.240;9.964;2024-01-30T04:01:13;99063.53;;;2.56;94.81
54910;BME280;63189;51.240;9.964;2024-01-30T04:03:38;99050.63;;;2.53;94.83
54910;BME280;63189;51.240;9.964;2024-01-30T04:06:04;99065.94;;;2.47;95.32
54910;BME280;63189;51.240;9.964;2024-01-30T04:08:29;99048.72;;;2.45;95.33
54910;BME280;63189;51.240;9.964;2024-01-30T04:10:55;99056.47;;;2.46;95.12
54910;BME280;63189;51.240;9.964;2024-01-30T04:13:20;99053.75;;;2.39;94.88
54910;BME280;63189;51.240;9.964;2024-01-30T04:15:45;99051.16;;;2.37;95.17
54910;BME280;63189;51.240;9.964;2024-01-30T04:18:11;99057.19;;;2.39;95.43
54910;BME280;63189;51.240;9.964;2024-01-30T04:20:36;99056.28;;;2.37;95.24
54910;BME280;63189;51.240;9.964;2024-01-30T04:23:02;99056.28;;;2.37;95.79
54910;BME280;63189;51.240;9.964;2024-01-30T04:25:27;99054.47;;;2.30;95.89
54910;BME280;63189;51.240;9.964;2024-01-30T04:27:54;99049.22;;;2.27;96.28
54910;BME280;63189;51.240;9.964;2024-01-30T04:30:20;99056.94;;;2.27;96.00
54910;BME280;63189;51.240;9.964;2024-01-30T04:32:45;99051.78;;;2.25;95.94
54910;BME280;63189;51.240;9.964;2024-01-30T04:35:10;99053.44;;;2.22;96.53
54910;BME280;63189;51.240;9.964;2024-01-30T04:37:36;99050.00;;;2.21;96.46
54910;BME280;63189;51.240;9.964;2024-01-30T04:40:01;99052.53;;;2.20;96.68
54910;BME280;63189;51.240;9.964;2024-01-30T04:42:28;99050.78;;;2.19;96.75
54910;BME280;63189;51.240;9.964;2024-01-30T04:44:53;99042.94;;;2.13;96.96
54910;BME280;63189;51.240;9.964;2024-01-30T04:47:18;99049.00;;;2.16;97.38
54910;BME280;63189;51.240;9.964;2024-01-30T04:49:44;99048.94;;;2.12;96.93
54910;BME280;63189;51.240;9.964;2024-01-30T04:52:09;99055.03;;;2.17;96.74
54910;BME280;63189;51.240;9.964;2024-01-30T04:54:35;99051.50;;;2.12;97.00
54910;BME280;63189;51.240;9.964;2024-01-30T04:57:01;99047.97;;;2.07;97.24
54910;BME280;63189;51.240;9.964;2024-01-30T04:59:27;99048.81;;;2.07;97.21
54910;BME280;63189;51.240;9.964;2024-01-30T05:01:52;99053.97;;;2.07;97.43
54910;BME280;63189;51.240;9.964;2024-01-30T05:04:18;99045.31;;;2.02;97.28
54910;BME280;63189;51.240;9.964;2024-01-30T05:06:43;99050.53;;;2.07;97.58
54910;BME280;63189;51.240;9.964;2024-01-30T05:09:08;99055.69;;;2.07;97.22
54910;BME280;63189;51.240;9.964;2024-01-30T05:11:39;99048.81;;;2.06;97.63
54910;BME280;63189;51.240;9.964;2024-01-30T05:14:05;99056.53;;;2.07;97.46
54910;BME280;63189;51.240;9.964;2024-01-30T05:16:31;99061.75;;;2.09;97.78
54910;BME280;63189;51.240;9.964;2024-01-30T05:18:56;99059.19;;;2.09;97.52
54910;BME280;63189;51.240;9.964;2024-01-30T05:21:21;99059.19;;;2.09;97.43
54910;BME280;63189;51.240;9.964;2024-01-30T05:23:47;99056.59;;;2.09;97.26
54910;BME280;63189;51.240;9.964;2024-01-30T05:26:12;99057.41;;;2.08;97.33
54910;BME280;63189;51.240;9.964;2024-01-30T05:28:37;99054.03;;;2.09;97.61
54910;BME280;63189;51.240;9.964;2024-01-30T05:31:06;99059.94;;;2.06;97.89
54910;BME280;63189;51.240;9.964;2024-01-30T05:33:31;99053.97;;;2.07;97.59
54910;BME280;63189;51.240;9.964;2024-01-30T05:35:56;99060.03;;;2.09;97.62
54910;BME280;63189;51.240;9.964;2024-01-30T05:38:22;99057.41;;;2.08;97.79
54910;BME280;63189;51.240;9.964;2024-01-30T05:40:47;99057.50;;;2.11;97.90
54910;BME280;63189;51.240;9.964;2024-01-30T05:43:12;99052.41;;;2.14;97.42
54910;BME280;63189;51.240;9.964;2024-01-30T05:45:38;99048.91;;;2.10;97.30
54910;BME280;63189;51.240;9.964;2024-01-30T05:48:04;99055.88;;;2.16;97.19
54910;BME280;63189;51.240;9.964;2024-01-30T05:50:29;99064.38;;;2.12;97.31
54910;BME280;63189;51.240;9.964;2024-01-30T05:52:55;99071.28;;;2.14;97.24
54910;BME280;63189;51.240;9.964;2024-01-30T05:55:20;99059.22;;;2.12;96.86
54910;BME280;63189;51.240;9.964;2024-01-30T05:57:45;99071.09;;;2.07;96.58
54910;BME280;63189;51.240;9.964;2024-01-30T06:00:11;99058.16;;;2.02;97.07
54910;BME280;63189;51.240;9.964;2024-01-30T06:02:36;99065.84;;;2.00;97.50
54910;BME280;63189;51.240;9.964;2024-01-30T06:05:02;99070.16;;;2.01;97.17
54910;BME280;63189;51.240;9.964;2024-01-30T06:07:27;99069.25;;;1.99;97.46
54910;BME280;63189;51.240;9.964;2024-01-30T06:09:52;99066.69;;;1.99;97.51
54910;BME280;63189;51.240;9.964;2024-01-30T06:12:18;99063.13;;;1.93;97.57
54910;BME280;63189;51.240;9.964;2024-01-30T06:14:43;99065.66;;;1.91;97.89
54910;BME280;63189;51.240;9.964;2024-01-30T06:17:09;99063.91;;;1.90;98.01
54910;BME280;63189;51.240;9.964;2024-01-30T06:19:34;99067.38;;;1.92;97.76
54910;BME280;63189;51.240;9.964;2024-01-30T06:22:00;99070.00;;;1.95;97.99
54910;BME280;63189;51.240;9.964;2024-01-30T06:24:25;99067.53;;;1.98;97.57
54910;BME280;63189;51.240;9.964;2024-01-30T06:26:51;99071.88;;;2.01;97.31
54910;BME280;63189;51.240;9.964;2024-01-30T06:29:16;99065.00;;;2.01;97.28
54910;BME280;63189;51.240;9.964;2024-01-30T06:31:42;99070.16;;;2.01;97.69
54910;BME280;63189;51.240;9.964;2024-01-30T06:34:09;99071.97;;;2.07;97.39
54910;BME280;63189;51.240;9.964;2024-01-30T06:36:34;99065.13;;;2.08;97.44
54910;BME280;63189;51.240;9.964;2024-01-30T06:39:01;99068.63;;;2.10;97.61
54910;BME280;63189;51.240;9.964;2024-01-30T06:41:26;99057.41;;;2.08;97.54
54910;BME280;63189;51.240;9.964;2024-01-30T06:43:52;99063.38;;;2.05;97.62
54910;BME280;63189;51.240;9.964;2024-01-30T06:46:17;99066.06;;;2.10;97.67
54910;BME280;63189;51.240;9.964;2024-01-30T06:48:42;99063.41;;;2.08;97.53
54910;BME280;63189;51.240;9.964;2024-01-30T06:51:10;99065.97;;;2.07;97.56
54910;BME280;63189;51.240;9.964;2024-01-30T06:53:35;99071.13;;;2.08;97.81
54910;BME280;63189;51.240;9.964;2024-01-30T06:56:01;99075.47;;;2.09;97.49
54910;BME280;63189;51.240;9.964;2024-01-30T06:58:26;99063.47;;;2.10;97.86
54910;BME280;63189;51.240;9.964;2024-01-30T07:00:51;99084.06;;;2.10;98.00
54910;BME280;63189;51.240;9.964;2024-01-30T07:03:17;99068.72;;;2.14;97.53
54910;BME280;63189;51.240;9.964;2024-01-30T07:05:42;99067.88;;;2.15;97.48
54910;BME280;63189;51.240;9.964;2024-01-30T07:08:08;99071.34;;;2.19;97.46
54910;BME280;63189;51.240;9.964;2024-01-30T07:10:33;99073.19;;;2.23;97.48
54910;BME280;63189;51.240;9.964;2024-01-30T07:13:00;99066.34;;;2.25;97.37
54910;BME280;63189;51.240;9.964;2024-01-30T07:15:26;99069.03;;;2.29;97.12
54910;BME280;63189;51.240;9.964;2024-01-30T07:17:51;99073.41;;;2.35;96.71
54910;BME280;63189;51.240;9.964;2024-01-30T07:20:16;99061.38;;;2.33;96.75
54910;BME280;63189;51.240;9.964;2024-01-30T07:22:43;99066.59;;;2.37;96.47
54910;BME280;63189;51.240;9.964;2024-01-30T07:25:09;99065.72;;;2.37;96.35
54910;BME280;63189;51.240;9.964;2024-01-30T07:27:34;99064.91;;;2.39;96.59
54910;BME280;63189;51.240;9.964;2024-01-30T07:30:00;99059.75;;;2.39;96.43
54910;BME280;63189;51.240;9.964;2024-01-30T07:32:25;99070.13;;;2.41;96.50
54910;BME280;63189;51.240;9.964;2024-01-30T07:34:50;99072.72;;;2.42;96.62
54910;BME280;63189;51.240;9.964;2024-01-30T07:37:16;99069.28;;;2.42;96.25
54910;BME280;63189;51.240;9.964;2024-01-30T07:39:42;99063.38;;;2.47;96.12
54910;BME280;63189;51.240;9.964;2024-01-30T07:42:08;99058.28;;;2.50;96.14
54910;BME280;63189;51.240;9.964;2024-01-30T07:44:33;99060.03;;;2.51;95.90
54910;BME280;63189;51.240;9.964;2024-01-30T07:46:59;99064.34;;;2.54;95.62
54910;BME280;63189;51.240;9.964;2024-01-30T07:49:24;99077.34;;;2.60;95.96
54910;BME280;63189;51.240;9.964;2024-01-30T07:51:50;99071.41;;;2.63;95.34
54910;BME280;63189;51.240;9.964;2024-01-30T07:54:16;99066.28;;;2.64;95.26
54910;BME280;63189;51.240;9.964;2024-01-30T07:56:41;99062.81;;;2.64;95.58
54910;BME280;63189;51.240;9.964;2024-01-30T07:59:10;99071.50;;;2.69;95.53
54910;BME280;63189;51.240;9.964;2024-01-30T08:01:35;99067.31;;;2.74;95.40
54910;BME280;63189;51.240;9.964;2024-01-30T08:04:01;99066.53;;;2.79;95.20
54910;BME280;63189;51.240;9.964;2024-01-30T08:06:26;99061.50;;;2.84;95.20
54910;BME280;63189;51.240;9.964;2024-01-30T08:08:51;99069.25;;;2.87;94.53
54910;BME280;63189;51.240;9.964;2024-01-30T08:11:20;99074.47;;;2.92;94.39
54910;BME280;63189;51.240;9.964;2024-01-30T08:13:45;99078.91;;;2.99;94.89
54910;BME280;63189;51.240;9.964;2024-01-30T08:16:11;99065.25;;;3.03;94.35
54910;BME280;63189;51.240;9.964;2024-01-30T08:18:36;99070.47;;;3.06;94.21
54910;BME280;63189;51.240;9.964;2024-01-30T08:21:01;99057.59;;;3.07;94.06
54910;BME280;63189;51.240;9.964;2024-01-30T08:23:27;99061.22;;;3.18;93.36
54910;BME280;63189;51.240;9.964;2024-01-30T08:25:52;99064.84;;;3.30;93.14
54910;BME280;63189;51.240;9.964;2024-01-30T08:28:18;99065.13;;;3.48;92.23
54910;BME280;63189;51.240;9.964;2024-01-30T08:30:43;99067.09;;;3.64;90.67
54910;BME280;63189;51.240;9.964;2024-01-30T08:33:08;99075.13;;;3.84;90.43
54910;BME280;63189;51.240;9.964;2024-01-30T08:35:34;99063.19;;;3.92;89.34
54910;BME280;63189;51.240;9.964;2024-01-30T08:37:59;99065.84;;;3.97;89.29
54910;BME280;63189;51.240;9.964;2024-01-30T08:40:25;99067.59;;;3.99;88.73
54910;BME280;63189;51.240;9.964;2024-01-30T08:42:50;99073.53;;;3.94;88.84
54910;BME280;63189;51.240;9.964;2024-01-30T08:45:16;99072.69;;;3.95;88.76
54910;BME280;63189;51.240;9.964;2024-01-30T08:47:41;99068.25;;;3.85;89.25
54910;BME280;63189;51.240;9.964;2024-01-30T08:50:07;99074.19;;;3.78;90.40
54910;BME280;63189;51.240;9.964;2024-01-30T08:52:33;99069.72;;;3.67;89.81
54910;BME280;63189;51.240;9.964;2024-01-30T08:54:59;99073.19;;;3.68;90.38
54910;BME280;63189;51.240;9.964;2024-01-30T08:57:24;99073.06;;;3.62;90.31
54910;BME280;63189;51.240;9.964;2024-01-30T08:59:54;99082.44;;;3.55;90.51
54910;BME280;63189;51.240;9.964;2024-01-30T09:02:19;99070.38;;;3.54;90.86
54910;BME280;63189;51.240;9.964;2024-01-30T09:04:44;99071.31;;;3.58;90.85
54910;BME280;63189;51.240;9.964;2024-01-30T09:07:10;99072.19;;;3.61;91.25
54910;BME280;63189;51.240;9.964;2024-01-30T09:09:37;99072.19;;;3.60;90.57
54910;BME280;63189;51.240;9.964;2024-01-30T09:12:04;99061.88;;;3.60;90.90
54910;BME280;63189;51.240;9.964;2024-01-30T09:14:39;99071.34;;;3.62;91.30
54910;BME280;63189;51.240;9.964;2024-01-30T09:17:05;99066.31;;;3.68;90.74
54910;BME280;63189;51.240;9.964;2024-01-30T09:19:30;99067.31;;;3.80;91.56
54910;BME280;63189;51.240;9.964;2024-01-30T09:21:56;99069.91;;;3.81;90.42
54910;BME280;63189;51.240;9.964;2024-01-30T09:24:21;99081.22;;;3.88;90.59
54910;BME280;63189;51.240;9.964;2024-01-30T09:26:46;99077.81;;;3.93;90.18
54910;BME280;63189;51.240;9.964;2024-01-30T09:29:12;99079.56;;;3.96;90.35
54910;BME280;63189;51.240;9.964;2024-01-30T09:31:37;99071.88;;;3.97;91.09
54910;BME280;63189;51.240;9.964;2024-01-30T09:34:02;99070.09;;;3.93;90.30
54910;BME280;63189;51.240;9.964;2024-01-30T09:36:28;99079.63;;;3.99;90.00
54910;BME280;63189;51.240;9.964;2024-01-30T09:38:53;99071.00;;;3.97;89.97
54910;BME280;63189;51.240;9.964;2024-01-30T09:41:19;99081.34;;;3.98;90.23
54910;BME280;63189;51.240;9.964;2024-01-30T09:43:47;99080.50;;;3.99;90.67
54910;BME280;63189;51.240;9.964;2024-01-30T09:46:17;99081.44;;;4.06;90.29
54910;BME280;63189;51.240;9.964;2024-01-30T09:48:46;99083.19;;;4.07;89.37
54910;BME280;63189;51.240;9.964;2024-01-30T09:51:12;99079.75;;;4.08;89.60
54910;BME280;63189;51.240;9.964;2024-01-30T09:53:40;99078.94;;;4.12;90.14
54910;BME280;63189;51.240;9.964;2024-01-30T09:56:05;99080.69;;;4.13;89.33
54910;BME280;63189;51.240;9.964;2024-01-30T09:58:31;99076.34;;;4.09;89.87
54910;BME280;63189;51.240;9.964;2024-01-30T10:00:56;99087.59;;;4.16;90.28
54910;BME280;63189;51.240;9.964;2024-01-30T10:03:21;99081.63;;;4.18;90.33
54910;BME280;63189;51.240;9.964;2024-01-30T10:05:54;99081.75;;;4.27;89.36
54910;BME280;63189;51.240;9.964;2024-01-30T10:08:20;99076.72;;;4.40;89.52
54910;BME280;63189;51.240;9.964;2024-01-30T10:10:49;99076.84;;;4.49;89.01
54910;BME280;63189;51.240;9.964;2024-01-30T10:13:18;99078.50;;;4.47;88.93
54910;BME280;63189;51.240;9.964;2024-01-30T10:15:43;99068.19;;;4.47;89.59
54910;BME280;63189;51.240;9.964;2024-01-30T10:18:10;99082.91;;;4.52;89.69
54910;BME280;63189;51.240;9.964;2024-01-30T10:20:35;99094.97;;;4.53;89.59
54910;BME280;63189;51.240;9.964;2024-01-30T10:23:01;99078.69;;;4.59;89.66
54910;BME280;63189;51.240;9.964;2024-01-30T10:25:27;99076.03;;;4.56;89.66
54910;BME280;63189;51.240;9.964;2024-01-30T10:27:55;99077.00;;;4.64;89.72
54910;BME280;63189;51.240;9.964;2024-01-30T10:30:24;99078.81;;;4.73;90.16
54910;BME280;63189;51.240;9.964;2024-01-30T10:32:50;99071.19;;;4.86;88.67
54910;BME280;63189;51.240;9.964;2024-01-30T10:35:16;99066.91;;;4.88;88.34
54910;BME280;63189;51.240;9.964;2024-01-30T10:37:43;99060.00;;;4.87;87.97
54910;BME280;63189;51.240;9.964;2024-01-30T10:40:13;99076.47;;;4.96;89.23
54910;BME280;63189;51.240;9.964;2024-01-30T10:42:44;99061.72;;;4.84;88.23
54910;BME280;63189;51.240;9.964;2024-01-30T10:45:12;99054.84;;;4.87;89.60
54910;BME280;63189;51.240;9.964;2024-01-30T10:47:39;99057.41;;;4.84;89.37
54910;BME280;63189;51.240;9.964;2024-01-30T10:50:05;99056.53;;;4.82;90.02
54910;BME280;63189;51.240;9.964;2024-01-30T10:52:32;99049.69;;;4.89;90.13
54910;BME280;63189;51.240;9.964;2024-01-30T10:54:58;99047.97;;;4.89;89.50
54910;BME280;63189;51.240;9.964;2024-01-30T10:57:25;99041.13;;;4.91;89.79
54910;BME280;63189;51.240;9.964;2024-01-30T11:00:01;99035.09;;;4.91;89.61
54910;BME280;63189;51.240;9.964;2024-01-30T11:02:30;99041.16;;;4.98;90.10
54910;BME280;63189;51.240;9.964;2024-01-30T11:04:58;99035.13;;;4.96;89.87
54910;BME280;63189;51.240;9.964;2024-01-30T11:07:25;99041.22;;;5.04;90.52
54910;BME280;63189;51.240;9.964;2024-01-30T11:09:52;99031.66;;;4.95;89.81
54910;BME280;63189;51.240;9.964;2024-01-30T11:12:22;99033.41;;;4.98;90.07
54910;BME280;63189;51.240;9.964;2024-01-30T11:14:49;99035.19;;;5.03;90.69
54910;BME280;63189;51.240;9.964;2024-01-30T11:17:14;99024.88;;;5.09;90.67
54910;BME280;63189;51.240;9.964;2024-01-30T11:19:41;99024.94;;;5.14;91.00
54910;BME280;63189;51.240;9.964;2024-01-30T11:22:07;99012.03;;;5.17;91.26
54910;BME280;63189;51.240;9.964;2024-01-30T11:24:40;99012.06;;;5.20;90.66
54910;BME280;63189;51.240;9.964;2024-01-30T11:27:09;99013.84;;;5.27;90.66
54910;BME280;63189;51.240;9.964;2024-01-30T11:29:37;99016.44;;;5.30;90.79
54910;BME280;63189;51.240;9.964;2024-01-30T11:32:03;99011.31;;;5.36;91.80
54910;BME280;63189;51.240;9.964;2024-01-30T11:34:29;99010.53;;;5.43;91.54
54910;BME280;63189;51.240;9.964;2024-01-30T11:37:04;99003.63;;;5.45;91.44
54910;BME280;63189;51.240;9.964;2024-01-30T11:39:35;98998.53;;;5.55;92.34
54910;BME280;63189;51.240;9.964;2024-01-30T11:42:03;98993.38;;;5.61;90.67
54910;BME280;63189;51.240;9.964;2024-01-30T11:44:30;98998.59;;;5.67;90.95
54910;BME280;63189;51.240;9.964;2024-01-30T11:46:56;98989.97;;;5.68;90.78
54910;BME280;63189;51.240;9.964;2024-01-30T11:49:23;98988.25;;;5.70;90.15
54910;BME280;63189;51.240;9.964;2024-01-30T11:51:48;98989.97;;;5.71;90.09
54910;BME280;63189;51.240;9.964;2024-01-30T11:54:15;98990.00;;;5.72;90.24
54910;BME280;63189;51.240;9.964;2024-01-30T11:56:41;98999.50;;;5.76;90.65
54910;BME280;63189;51.240;9.964;2024-01-30T11:59:07;98996.94;;;5.78;90.55
54910;BME280;63189;51.240;9.964;2024-01-30T12:01:33;99002.13;;;5.81;90.79
54910;BME280;63189;51.240;9.964;2024-01-30T12:03:59;98992.63;;;5.82;90.49
54910;BME280;63189;51.240;9.964;2024-01-30T12:06:24;98996.13;;;5.85;89.70
54910;BME280;63189;51.240;9.964;2024-01-30T12:09:00;98998.72;;;5.85;89.43
54910;BME280;63189;51.240;9.964;2024-01-30T12:11:26;98999.59;;;5.90;89.51
54910;BME280;63189;51.240;9.964;2024-01-30T12:13:53;98989.25;;;5.93;90.21
54910;BME280;63189;51.240;9.964;2024-01-30T12:16:19;98989.28;;;5.95;89.97
54910;BME280;63189;51.240;9.964;2024-01-30T12:18:45;98989.31;;;5.99;90.20
54910;BME280;63189;51.240;9.964;2024-01-30T12:21:10;98994.47;;;6.04;90.01
54910;BME280;63189;51.240;9.964;2024-01-30T12:23:36;98986.72;;;6.02;89.80
54910;BME280;63189;51.240;9.964;2024-01-30T12:26:01;98984.16;;;6.12;91.29
54910;BME280;63189;51.240;9.964;2024-01-30T12:28:29;98981.63;;;6.18;90.35
54910;BME280;63189;51.240;9.964;2024-01-30T12:31:06;98987.66;;;6.24;89.67
54910;BME280;63189;51.240;9.964;2024-01-30T12:33:31;98985.94;;;6.23;89.29
54910;BME280;63189;51.240;9.964;2024-01-30T12:35:57;98990.25;;;6.17;88.38
54910;BME280;63189;51.240;9.964;2024-01-30T12:38:26;98974.72;;;6.17;88.93
54910;BME280;63189;51.240;9.964;2024-01-30T12:40:55;98983.34;;;6.22;89.87
54910;BME280;63189;51.240;9.964;2024-01-30T12:43:22;98977.31;;;6.24;89.88
54910;BME280;63189;51.240;9.964;2024-01-30T12:45:47;98983.38;;;6.28;90.06
54910;BME280;63189;51.240;9.964;2024-01-30T12:48:13;98984.25;;;6.30;89.10
54910;BME280;63189;51.240;9.964;2024-01-30T12:50:38;98975.63;;;6.37;89.00
54910;BME280;63189;51.240;9.964;2024-01-30T12:53:03;98986.00;;;6.43;88.63
54910;BME280;63189;51.240;9.964;2024-01-30T12:55:29;98970.47;;;6.51;89.34
54910;BME280;63189;51.240;9.964;2024-01-30T12:57:55;98974.78;;;6.55;88.30
54910;BME280;63189;51.240;9.964;2024-01-30T13:00:21;98986.03;;;6.57;87.83
54910;BME280;63189;51.240;9.964;2024-01-30T13:02:47;98989.50;;;6.60;87.36